• Join FlightAware (Why Join?)
  • Login
  • US Flag 
09:57AM EDT


 

Airport Tracker/Info


-or-


 

Live Flight TrackerFlight Track Log ✈ UCA3597 ✈ 30-Sep-2013 ✈ KIAD - KBGM

Flight Track Log - Related Links

Times and Time Zones

All times are in EDT time to prevent confusion due to time zone crossing. See the UCA3597 flight status page for this flight to view local times or setup timezone preferences in your user account.

Time Position Orientation Groundspeed Altitude Reporting Facility
EDT Latitude Longitude Course Direction KTS MPH feet Rate Location/Type
05:49PM 39.2983 -77.3078 19° North  Level Estimated
05:50PM 39.3613 -77.2803 19° North  Level Estimated
05:51PM 39.4243 -77.2528 19° North  Level Estimated
05:52PM 39.4872 -77.2252 19° North  Level Estimated
05:53PM 39.5501 -77.1976 19° North  Level Estimated
05:54PM 39.6131 -77.1699 19° North  Level Estimated
05:55PM 39.6760 -77.1422 19° North  Level Estimated
05:56PM 39.7389 -77.1144 19° North  Level Estimated
05:57PM 39.8018 -77.0866 19° North  Level Estimated
05:58PM 39.8647 -77.0588 19° North  Level Estimated
05:59PM 39.9276 -77.0308 19° North  Level Estimated
06:00PM 39.9905 -77.0029 19° North  Level Estimated
06:01PM 40.0534 -76.9748 19° North  Level Estimated
06:02PM 40.1163 -76.9467 19° North  Level Estimated
06:03PM 40.1792 -76.9186 19° North  Level Estimated
06:04PM 40.2420 -76.8904 19° North  Level Estimated
06:05PM 40.3049 -76.8622 19° North  Level Estimated
06:06PM 40.3677 -76.8339 19° North  Level Estimated
06:07PM 40.4306 -76.8056 19° North  Level Estimated
06:08PM 40.4934 -76.7772 19° North  Level Estimated
06:09PM 40.5563 -76.7487 19° North  Level Estimated
06:10PM 40.6191 -76.7202 19° North  Level Estimated
06:11PM 40.6819 -76.6917 19° North  Level Estimated
06:12PM 40.7447 -76.6630 19° North  Level Estimated
06:13PM 40.8075 -76.6344 19° North  Level Estimated
06:14PM 40.8703 -76.6057 19° North  Level Estimated
06:15PM 40.9331 -76.5769 19° North  Level Estimated
06:16PM 40.9959 -76.5481 19° North  Level Estimated
06:17PM 41.0587 -76.5192 19° North  Level Estimated
06:18PM 41.1214 -76.4902 19° North  Level Estimated
06:19PM 41.1842 -76.4613 19° North  Level Estimated
06:20PM 41.2470 -76.4322 19° North  Level Estimated
06:21PM 41.3097 -76.4031 19° North  Level Estimated
06:22PM 41.3725 -76.3739 19° North  Level Estimated
06:23PM 41.4352 -76.3447 19° North  Level Estimated
06:24PM 41.4979 -76.3155 19° North  Level Estimated
06:25PM 41.5606 -76.2861 19° North  Level Estimated
06:26PM 41.6233 -76.2567 19° North  Level Estimated
06:27PM 41.6860 -76.2273 19° North  Level Estimated
06:28PM 41.7487 -76.1978 19° North  Level Estimated
06:29PM 41.8114 -76.1682 19° North  Level Estimated
06:30PM 41.8741 -76.1386 19° North  Level Estimated
06:31PM 41.9368 -76.1089 19° North  Level Estimated
06:32PM 41.9994 -76.0792 19° North  Level Estimated
06:33PM 42.0621 -76.0494 19° North  Level Estimated
06:34PM 42.1247 -76.0196 19° North  Level Estimated
06:35PM 42.1874 -75.9897 19° North  Level Estimated
06:36PM 42.2084 -75.9796 19° North  Level Estimated
06:37PM 42.2084 -75.9796 35° Northeast  Level Estimated
06:38PM 42.2084 -75.9796 35° Northeast  Level Estimated
06:39PM 42.2084 -75.9796 35° Northeast  Level Estimated
06:40PM 42.2084 -75.9796 35° Northeast  Level Estimated
06:41PM 42.2084 -75.9796 35° Northeast  Level Estimated
06:42PM 42.2084 -75.9796 35° Northeast  Level Estimated
06:43PM 42.2084 -75.9796 35° Northeast  Level Estimated
06:44PM 42.2084 -75.9796 35° Northeast  Level Estimated
06:45PM 42.2084 -75.9796 35° Northeast  Level Estimated
06:46PM 42.2084 -75.9796 35° Northeast  Level Estimated
06:47PM 42.2084 -75.9796 35° Northeast  Level Estimated
06:48PM 42.2084 -75.9796 35° Northeast  Level Estimated
06:49PM 42.2084 -75.9796 35° Northeast  Level Estimated
06:50PM 42.2084 -75.9796 35° Northeast  Level Estimated
06:51PM 42.2084 -75.9796 35° Northeast  Level Estimated